sensor_id;sensor_type;location;lat;lon;timestamp;P1;durP1;ratioP1;P2;durP2;ratioP2
45114;SDS011;30877;43.706;10.780;2023-04-30T00:00:34;7.88;;;6.68;;
45114;SDS011;30877;43.706;10.780;2023-04-30T00:03:02;9.27;;;6.53;;
45114;SDS011;30877;43.706;10.780;2023-04-30T00:05:30;8.93;;;7.53;;
45114;SDS011;30877;43.706;10.780;2023-04-30T00:08:00;8.70;;;6.85;;
45114;SDS011;30877;43.706;10.780;2023-04-30T00:10:29;9.38;;;6.43;;
45114;SDS011;30877;43.706;10.780;2023-04-30T00:12:57;9.38;;;6.55;;
45114;SDS011;30877;43.706;10.780;2023-04-30T00:15:25;7.18;;;6.22;;
45114;SDS011;30877;43.706;10.780;2023-04-30T00:17:54;7.80;;;6.30;;
45114;SDS011;30877;43.706;10.780;2023-04-30T00:20:22;9.55;;;6.95;;
45114;SDS011;30877;43.706;10.780;2023-04-30T00:23:09;7.00;;;6.30;;
45114;SDS011;30877;43.706;10.780;2023-04-30T00:25:38;8.88;;;6.47;;
45114;SDS011;30877;43.706;10.780;2023-04-30T00:28:07;8.30;;;6.78;;
45114;SDS011;30877;43.706;10.780;2023-04-30T00:30:35;6.55;;;5.90;;
45114;SDS011;30877;43.706;10.780;2023-04-30T00:33:03;6.75;;;5.85;;
45114;SDS011;30877;43.706;10.780;2023-04-30T00:35:32;7.70;;;6.15;;
45114;SDS011;30877;43.706;10.780;2023-04-30T00:38:00;7.80;;;6.22;;
45114;SDS011;30877;43.706;10.780;2023-04-30T00:40:30;7.22;;;5.97;;
45114;SDS011;30877;43.706;10.780;2023-04-30T00:43:01;8.15;;;6.15;;
45114;SDS011;30877;43.706;10.780;2023-04-30T00:45:29;7.18;;;6.45;;
45114;SDS011;30877;43.706;10.780;2023-04-30T00:47:58;6.28;;;5.68;;
45114;SDS011;30877;43.706;10.780;2023-04-30T00:50:27;8.07;;;6.22;;
45114;SDS011;30877;43.706;10.780;2023-04-30T00:52:56;8.27;;;7.03;;
45114;SDS011;30877;43.706;10.780;2023-04-30T00:55:25;7.32;;;6.53;;
45114;SDS011;30877;43.706;10.780;2023-04-30T00:57:56;7.47;;;6.40;;
45114;SDS011;30877;43.706;10.780;2023-04-30T01:00:24;7.10;;;5.93;;
45114;SDS011;30877;43.706;10.780;2023-04-30T01:02:54;8.38;;;6.70;;
45114;SDS011;30877;43.706;10.780;2023-04-30T01:05:23;7.45;;;6.63;;
45114;SDS011;30877;43.706;10.780;2023-04-30T01:07:52;8.15;;;6.60;;
45114;SDS011;30877;43.706;10.780;2023-04-30T01:10:22;7.53;;;6.18;;
45114;SDS011;30877;43.706;10.780;2023-04-30T01:13:00;6.97;;;6.03;;
45114;SDS011;30877;43.706;10.780;2023-04-30T01:18:03;8.00;;;6.05;;
45114;SDS011;30877;43.706;10.780;2023-04-30T01:20:37;6.43;;;5.75;;
45114;SDS011;30877;43.706;10.780;2023-04-30T01:23:13;7.47;;;6.53;;
45114;SDS011;30877;43.706;10.780;2023-04-30T01:25:55;8.97;;;6.30;;
45114;SDS011;30877;43.706;10.780;2023-04-30T01:28:36;5.95;;;5.35;;
45114;SDS011;30877;43.706;10.780;2023-04-30T01:31:10;6.35;;;5.70;;
45114;SDS011;30877;43.706;10.780;2023-04-30T01:33:39;6.93;;;6.22;;
45114;SDS011;30877;43.706;10.780;2023-04-30T01:36:10;6.10;;;5.30;;
45114;SDS011;30877;43.706;10.780;2023-04-30T01:38:55;7.00;;;6.30;;
45114;SDS011;30877;43.706;10.780;2023-04-30T01:41:36;7.65;;;6.43;;
45114;SDS011;30877;43.706;10.780;2023-04-30T01:44:21;7.57;;;6.25;;
45114;SDS011;30877;43.706;10.780;2023-04-30T01:47:01;9.15;;;6.80;;
45114;SDS011;30877;43.706;10.780;2023-04-30T01:49:37;7.68;;;6.40;;
45114;SDS011;30877;43.706;10.780;2023-04-30T01:52:14;8.20;;;7.03;;
45114;SDS011;30877;43.706;10.780;2023-04-30T01:54:48;9.80;;;7.03;;
45114;SDS011;30877;43.706;10.780;2023-04-30T01:57:21;8.23;;;6.57;;
45114;SDS011;30877;43.706;10.780;2023-04-30T01:59:55;12.23;;;6.50;;
45114;SDS011;30877;43.706;10.780;2023-04-30T02:02:24;7.38;;;6.65;;
45114;SDS011;30877;43.706;10.780;2023-04-30T02:04:53;7.07;;;6.45;;
45114;SDS011;30877;43.706;10.780;2023-04-30T02:07:26;8.88;;;6.93;;
45114;SDS011;30877;43.706;10.780;2023-04-30T02:10:04;6.15;;;5.47;;
45114;SDS011;30877;43.706;10.780;2023-04-30T02:12:33;6.07;;;5.38;;
45114;SDS011;30877;43.706;10.780;2023-04-30T02:15:04;5.97;;;5.47;;
45114;SDS011;30877;43.706;10.780;2023-04-30T02:17:33;6.75;;;5.50;;
45114;SDS011;30877;43.706;10.780;2023-04-30T02:20:01;6.30;;;5.70;;
45114;SDS011;30877;43.706;10.780;2023-04-30T02:22:30;6.80;;;6.20;;
45114;SDS011;30877;43.706;10.780;2023-04-30T02:24:59;8.05;;;6.15;;
45114;SDS011;30877;43.706;10.780;2023-04-30T02:27:29;9.32;;;6.15;;
45114;SDS011;30877;43.706;10.780;2023-04-30T02:29:57;8.45;;;6.55;;
45114;SDS011;30877;43.706;10.780;2023-04-30T02:32:27;19.73;;;7.32;;
45114;SDS011;30877;43.706;10.780;2023-04-30T02:34:56;17.08;;;7.43;;
45114;SDS011;30877;43.706;10.780;2023-04-30T02:37:24;9.75;;;7.07;;
45114;SDS011;30877;43.706;10.780;2023-04-30T02:39:52;7.05;;;6.35;;
45114;SDS011;30877;43.706;10.780;2023-04-30T02:42:21;9.43;;;6.93;;
45114;SDS011;30877;43.706;10.780;2023-04-30T02:44:49;6.82;;;6.20;;
45114;SDS011;30877;43.706;10.780;2023-04-30T02:47:17;15.23;;;7.15;;
45114;SDS011;30877;43.706;10.780;2023-04-30T02:49:46;7.57;;;6.57;;
45114;SDS011;30877;43.706;10.780;2023-04-30T02:52:14;10.98;;;7.57;;
45114;SDS011;30877;43.706;10.780;2023-04-30T02:54:42;11.18;;;7.15;;
45114;SDS011;30877;43.706;10.780;2023-04-30T02:57:10;17.40;;;7.57;;
45114;SDS011;30877;43.706;10.780;2023-04-30T02:59:38;16.55;;;8.10;;
45114;SDS011;30877;43.706;10.780;2023-04-30T03:02:06;8.73;;;7.13;;
45114;SDS011;30877;43.706;10.780;2023-04-30T03:04:37;27.92;;;7.85;;
45114;SDS011;30877;43.706;10.780;2023-04-30T03:07:06;11.70;;;8.07;;
45114;SDS011;30877;43.706;10.780;2023-04-30T03:09:35;17.25;;;7.07;;
45114;SDS011;30877;43.706;10.780;2023-04-30T03:12:04;12.48;;;6.95;;
45114;SDS011;30877;43.706;10.780;2023-04-30T03:14:32;11.75;;;6.85;;
45114;SDS011;30877;43.706;10.780;2023-04-30T03:17:00;9.65;;;6.93;;
45114;SDS011;30877;43.706;10.780;2023-04-30T03:19:28;14.98;;;7.05;;
45114;SDS011;30877;43.706;10.780;2023-04-30T03:21:56;14.23;;;6.90;;
45114;SDS011;30877;43.706;10.780;2023-04-30T03:24:25;17.77;;;7.22;;
45114;SDS011;30877;43.706;10.780;2023-04-30T03:26:54;19.77;;;7.30;;
45114;SDS011;30877;43.706;10.780;2023-04-30T03:29:22;18.77;;;6.70;;
45114;SDS011;30877;43.706;10.780;2023-04-30T03:31:50;10.65;;;7.05;;
45114;SDS011;30877;43.706;10.780;2023-04-30T03:34:18;7.28;;;6.55;;
45114;SDS011;30877;43.706;10.780;2023-04-30T03:36:46;7.32;;;6.63;;
45114;SDS011;30877;43.706;10.780;2023-04-30T03:39:15;17.80;;;6.82;;
45114;SDS011;30877;43.706;10.780;2023-04-30T03:41:44;13.18;;;6.55;;
45114;SDS011;30877;43.706;10.780;2023-04-30T03:44:12;8.02;;;6.88;;
45114;SDS011;30877;43.706;10.780;2023-04-30T03:46:43;6.70;;;6.10;;
45114;SDS011;30877;43.706;10.780;2023-04-30T03:49:11;6.32;;;5.75;;
45114;SDS011;30877;43.706;10.780;2023-04-30T03:51:39;6.30;;;5.80;;
45114;SDS011;30877;43.706;10.780;2023-04-30T03:54:08;5.95;;;5.45;;
45114;SDS011;30877;43.706;10.780;2023-04-30T03:56:36;6.13;;;5.63;;
45114;SDS011;30877;43.706;10.780;2023-04-30T03:59:06;5.25;;;4.75;;
45114;SDS011;30877;43.706;10.780;2023-04-30T04:01:34;5.00;;;4.60;;
45114;SDS011;30877;43.706;10.780;2023-04-30T04:04:03;5.43;;;4.93;;
45114;SDS011;30877;43.706;10.780;2023-04-30T04:06:32;5.03;;;4.57;;
45114;SDS011;30877;43.706;10.780;2023-04-30T04:09:00;4.55;;;4.15;;
45114;SDS011;30877;43.706;10.780;2023-04-30T04:11:30;5.80;;;5.30;;
45114;SDS011;30877;43.706;10.780;2023-04-30T04:13:58;6.00;;;5.40;;
45114;SDS011;30877;43.706;10.780;2023-04-30T04:16:28;5.95;;;5.45;;
45114;SDS011;30877;43.706;10.780;2023-04-30T04:18:56;5.63;;;5.15;;
45114;SDS011;30877;43.706;10.780;2023-04-30T04:21:25;5.80;;;5.22;;
45114;SDS011;30877;43.706;10.780;2023-04-30T04:23:54;5.10;;;4.65;;
45114;SDS011;30877;43.706;10.780;2023-04-30T04:26:22;5.60;;;5.10;;
45114;SDS011;30877;43.706;10.780;2023-04-30T04:28:51;4.70;;;4.30;;
45114;SDS011;30877;43.706;10.780;2023-04-30T04:31:19;5.18;;;4.70;;
45114;SDS011;30877;43.706;10.780;2023-04-30T04:33:50;5.30;;;4.78;;
45114;SDS011;30877;43.706;10.780;2023-04-30T04:36:24;5.40;;;5.00;;
45114;SDS011;30877;43.706;10.780;2023-04-30T04:38:54;5.57;;;5.07;;
45114;SDS011;30877;43.706;10.780;2023-04-30T04:41:29;5.78;;;5.18;;
45114;SDS011;30877;43.706;10.780;2023-04-30T04:43:59;5.05;;;4.65;;
45114;SDS011;30877;43.706;10.780;2023-04-30T04:46:28;5.22;;;4.80;;
45114;SDS011;30877;43.706;10.780;2023-04-30T04:48:59;6.43;;;5.72;;
45114;SDS011;30877;43.706;10.780;2023-04-30T04:51:28;5.25;;;4.85;;
45114;SDS011;30877;43.706;10.780;2023-04-30T04:53:56;5.85;;;5.20;;
45114;SDS011;30877;43.706;10.780;2023-04-30T04:56:24;5.85;;;5.35;;
45114;SDS011;30877;43.706;10.780;2023-04-30T04:58:52;8.65;;;5.60;;
45114;SDS011;30877;43.706;10.780;2023-04-30T05:01:20;6.68;;;6.07;;
45114;SDS011;30877;43.706;10.780;2023-04-30T05:03:48;6.22;;;5.63;;
45114;SDS011;30877;43.706;10.780;2023-04-30T05:06:19;6.47;;;5.78;;
45114;SDS011;30877;43.706;10.780;2023-04-30T05:08:47;6.30;;;5.75;;
45114;SDS011;30877;43.706;10.780;2023-04-30T05:11:15;6.25;;;5.72;;
45114;SDS011;30877;43.706;10.780;2023-04-30T05:13:44;6.07;;;5.55;;
45114;SDS011;30877;43.706;10.780;2023-04-30T05:16:12;6.63;;;5.93;;
45114;SDS011;30877;43.706;10.780;2023-04-30T05:18:40;7.13;;;6.45;;
45114;SDS011;30877;43.706;10.780;2023-04-30T05:21:08;7.28;;;6.55;;
45114;SDS011;30877;43.706;10.780;2023-04-30T05:23:38;6.43;;;5.82;;
45114;SDS011;30877;43.706;10.780;2023-04-30T05:26:06;7.78;;;6.97;;
45114;SDS011;30877;43.706;10.780;2023-04-30T05:28:34;6.60;;;6.07;;
45114;SDS011;30877;43.706;10.780;2023-04-30T05:31:02;7.97;;;6.72;;
45114;SDS011;30877;43.706;10.780;2023-04-30T05:33:30;7.05;;;6.45;;
45114;SDS011;30877;43.706;10.780;2023-04-30T05:35:57;6.88;;;6.28;;
45114;SDS011;30877;43.706;10.780;2023-04-30T05:38:25;7.57;;;6.85;;
45114;SDS011;30877;43.706;10.780;2023-04-30T05:40:55;8.02;;;7.22;;
45114;SDS011;30877;43.706;10.780;2023-04-30T05:43:23;7.10;;;6.43;;
45114;SDS011;30877;43.706;10.780;2023-04-30T05:45:51;7.00;;;6.40;;
45114;SDS011;30877;43.706;10.780;2023-04-30T05:48:19;7.40;;;6.70;;
45114;SDS011;30877;43.706;10.780;2023-04-30T05:50:47;7.00;;;6.40;;
45114;SDS011;30877;43.706;10.780;2023-04-30T05:53:15;7.20;;;6.50;;
45114;SDS011;30877;43.706;10.780;2023-04-30T05:55:43;7.35;;;6.72;;
45114;SDS011;30877;43.706;10.780;2023-04-30T05:58:23;6.72;;;6.13;;
45114;SDS011;30877;43.706;10.780;2023-04-30T06:00:51;6.47;;;5.88;;
45114;SDS011;30877;43.706;10.780;2023-04-30T06:03:19;6.47;;;5.78;;
45114;SDS011;30877;43.706;10.780;2023-04-30T06:05:48;8.93;;;8.00;;
45114;SDS011;30877;43.706;10.780;2023-04-30T06:08:16;7.80;;;6.95;;
45114;SDS011;30877;43.706;10.780;2023-04-30T06:10:44;8.77;;;7.30;;
45114;SDS011;30877;43.706;10.780;2023-04-30T06:13:13;8.77;;;7.93;;
45114;SDS011;30877;43.706;10.780;2023-04-30T06:15:42;7.95;;;7.00;;
45114;SDS011;30877;43.706;10.780;2023-04-30T06:18:11;8.27;;;7.47;;
45114;SDS011;30877;43.706;10.780;2023-04-30T06:20:40;9.27;;;7.93;;
45114;SDS011;30877;43.706;10.780;2023-04-30T06:23:08;7.68;;;6.97;;
45114;SDS011;30877;43.706;10.780;2023-04-30T06:25:36;8.07;;;7.28;;
45114;SDS011;30877;43.706;10.780;2023-04-30T06:28:04;8.38;;;7.03;;
45114;SDS011;30877;43.706;10.780;2023-04-30T06:30:35;8.40;;;7.18;;
45114;SDS011;30877;43.706;10.780;2023-04-30T06:33:03;8.40;;;7.60;;
45114;SDS011;30877;43.706;10.780;2023-04-30T06:35:32;7.90;;;6.63;;
45114;SDS011;30877;43.706;10.780;2023-04-30T06:38:00;8.10;;;7.20;;
45114;SDS011;30877;43.706;10.780;2023-04-30T06:40:28;7.88;;;7.07;;
45114;SDS011;30877;43.706;10.780;2023-04-30T06:42:56;7.93;;;7.10;;
45114;SDS011;30877;43.706;10.780;2023-04-30T06:45:25;9.38;;;7.18;;
45114;SDS011;30877;43.706;10.780;2023-04-30T06:47:54;7.47;;;6.65;;
45114;SDS011;30877;43.706;10.780;2023-04-30T06:50:29;8.90;;;6.78;;
45114;SDS011;30877;43.706;10.780;2023-04-30T06:52:57;7.32;;;6.30;;
45114;SDS011;30877;43.706;10.780;2023-04-30T06:55:26;6.55;;;5.95;;
45114;SDS011;30877;43.706;10.780;2023-04-30T06:57:54;8.93;;;6.20;;
45114;SDS011;30877;43.706;10.780;2023-04-30T07:00:23;7.10;;;5.93;;
45114;SDS011;30877;43.706;10.780;2023-04-30T07:02:52;5.85;;;5.22;;
45114;SDS011;30877;43.706;10.780;2023-04-30T07:05:23;6.30;;;5.75;;
45114;SDS011;30877;43.706;10.780;2023-04-30T07:07:51;7.82;;;6.07;;
45114;SDS011;30877;43.706;10.780;2023-04-30T07:10:19;7.13;;;6.32;;
45114;SDS011;30877;43.706;10.780;2023-04-30T07:12:47;6.93;;;5.68;;
45114;SDS011;30877;43.706;10.780;2023-04-30T07:15:15;6.03;;;5.20;;
45114;SDS011;30877;43.706;10.780;2023-04-30T07:17:43;6.50;;;5.05;;
45114;SDS011;30877;43.706;10.780;2023-04-30T07:20:13;7.32;;;5.63;;
45114;SDS011;30877;43.706;10.780;2023-04-30T07:22:42;6.05;;;5.35;;
45114;SDS011;30877;43.706;10.780;2023-04-30T07:25:12;9.30;;;5.55;;
45114;SDS011;30877;43.706;10.780;2023-04-30T07:27:40;5.93;;;5.40;;
45114;SDS011;30877;43.706;10.780;2023-04-30T07:30:08;7.45;;;5.47;;
45114;SDS011;30877;43.706;10.780;2023-04-30T07:32:37;7.13;;;6.03;;
45114;SDS011;30877;43.706;10.780;2023-04-30T07:35:07;8.48;;;5.13;;
45114;SDS011;30877;43.706;10.780;2023-04-30T07:37:37;7.90;;;5.45;;
45114;SDS011;30877;43.706;10.780;2023-04-30T07:40:07;5.53;;;4.72;;
45114;SDS011;30877;43.706;10.780;2023-04-30T07:42:45;5.60;;;4.97;;
45114;SDS011;30877;43.706;10.780;2023-04-30T07:45:13;5.30;;;4.80;;
45114;SDS011;30877;43.706;10.780;2023-04-30T07:47:41;6.65;;;5.25;;
45114;SDS011;30877;43.706;10.780;2023-04-30T07:50:10;5.25;;;4.63;;
45114;SDS011;30877;43.706;10.780;2023-04-30T07:52:40;9.30;;;5.28;;
45114;SDS011;30877;43.706;10.780;2023-04-30T07:55:08;5.70;;;4.30;;
45114;SDS011;30877;43.706;10.780;2023-04-30T07:57:37;4.65;;;3.35;;
45114;SDS011;30877;43.706;10.780;2023-04-30T08:00:06;3.67;;;3.30;;
45114;SDS011;30877;43.706;10.780;2023-04-30T08:02:37;4.78;;;2.83;;
45114;SDS011;30877;43.706;10.780;2023-04-30T08:05:06;4.22;;;2.10;;
45114;SDS011;30877;43.706;10.780;2023-04-30T08:07:35;6.05;;;2.00;;
45114;SDS011;30877;43.706;10.780;2023-04-30T08:10:05;2.28;;;1.90;;
45114;SDS011;30877;43.706;10.780;2023-04-30T08:12:34;3.80;;;1.90;;
45114;SDS011;30877;43.706;10.780;2023-04-30T08:15:03;2.88;;;1.80;;
45114;SDS011;30877;43.706;10.780;2023-04-30T08:17:32;3.05;;;1.50;;
45114;SDS011;30877;43.706;10.780;2023-04-30T08:20:01;1.70;;;1.58;;
45114;SDS011;30877;43.706;10.780;2023-04-30T08:22:30;2.72;;;1.63;;
45114;SDS011;30877;43.706;10.780;2023-04-30T08:24:58;3.05;;;1.80;;
45114;SDS011;30877;43.706;10.780;2023-04-30T08:27:30;1.58;;;1.27;;
45114;SDS011;30877;43.706;10.780;2023-04-30T08:29:58;3.92;;;1.90;;
45114;SDS011;30877;43.706;10.780;2023-04-30T08:32:26;1.80;;;1.50;;
45114;SDS011;30877;43.706;10.780;2023-04-30T08:34:55;2.42;;;1.88;;
45114;SDS011;30877;43.706;10.780;2023-04-30T08:37:23;1.98;;;1.70;;
45114;SDS011;30877;43.706;10.780;2023-04-30T08:39:50;2.38;;;1.70;;
45114;SDS011;30877;43.706;10.780;2023-04-30T08:42:19;4.05;;;2.03;;
45114;SDS011;30877;43.706;10.780;2023-04-30T08:44:52;2.13;;;1.80;;
45114;SDS011;30877;43.706;10.780;2023-04-30T08:47:20;2.28;;;1.88;;
45114;SDS011;30877;43.706;10.780;2023-04-30T08:49:50;3.35;;;2.15;;
45114;SDS011;30877;43.706;10.780;2023-04-30T08:52:18;3.92;;;2.13;;
45114;SDS011;30877;43.706;10.780;2023-04-30T08:54:47;2.20;;;1.98;;
45114;SDS011;30877;43.706;10.780;2023-04-30T08:57:18;2.75;;;2.00;;
45114;SDS011;30877;43.706;10.780;2023-04-30T08:59:46;3.70;;;2.30;;
45114;SDS011;30877;43.706;10.780;2023-04-30T09:02:15;2.20;;;2.00;;
45114;SDS011;30877;43.706;10.780;2023-04-30T09:04:43;2.42;;;1.95;;
45114;SDS011;30877;43.706;10.780;2023-04-30T09:07:12;2.72;;;2.15;;
45114;SDS011;30877;43.706;10.780;2023-04-30T09:09:40;3.85;;;2.00;;
45114;SDS011;30877;43.706;10.780;2023-04-30T09:12:11;3.75;;;2.20;;
45114;SDS011;30877;43.706;10.780;2023-04-30T09:14:56;3.97;;;2.10;;
45114;SDS011;30877;43.706;10.780;2023-04-30T09:17:27;3.72;;;2.80;;
45114;SDS011;30877;43.706;10.780;2023-04-30T09:19:55;2.55;;;2.10;;
45114;SDS011;30877;43.706;10.780;2023-04-30T09:22:34;6.50;;;2.50;;
45114;SDS011;30877;43.706;10.780;2023-04-30T09:25:02;3.72;;;2.70;;
45114;SDS011;30877;43.706;10.780;2023-04-30T09:27:30;4.85;;;2.30;;
45114;SDS011;30877;43.706;10.780;2023-04-30T09:29:58;2.67;;;2.17;;
45114;SDS011;30877;43.706;10.780;2023-04-30T09:32:28;4.05;;;2.85;;
45114;SDS011;30877;43.706;10.780;2023-04-30T09:34:55;4.20;;;2.75;;
45114;SDS011;30877;43.706;10.780;2023-04-30T09:37:33;6.20;;;3.08;;
45114;SDS011;30877;43.706;10.780;2023-04-30T09:40:02;3.30;;;2.22;;
45114;SDS011;30877;43.706;10.780;2023-04-30T09:42:30;4.70;;;2.28;;
45114;SDS011;30877;43.706;10.780;2023-04-30T09:44:58;3.13;;;2.08;;
45114;SDS011;30877;43.706;10.780;2023-04-30T09:47:28;3.15;;;2.05;;
45114;SDS011;30877;43.706;10.780;2023-04-30T09:49:58;2.45;;;2.25;;
45114;SDS011;30877;43.706;10.780;2023-04-30T09:55:07;1.98;;;1.58;;
45114;SDS011;30877;43.706;10.780;2023-04-30T09:57:35;2.60;;;2.05;;
45114;SDS011;30877;43.706;10.780;2023-04-30T10:00:03;4.50;;;2.30;;
45114;SDS011;30877;43.706;10.780;2023-04-30T10:02:35;3.92;;;1.90;;
45114;SDS011;30877;43.706;10.780;2023-04-30T10:05:04;2.78;;;2.40;;
45114;SDS011;30877;43.706;10.780;2023-04-30T10:07:33;3.47;;;2.50;;
45114;SDS011;30877;43.706;10.780;2023-04-30T10:10:06;3.22;;;2.45;;
45114;SDS011;30877;43.706;10.780;2023-04-30T10:12:37;3.58;;;2.30;;
45114;SDS011;30877;43.706;10.780;2023-04-30T10:15:10;5.25;;;2.50;;
45114;SDS011;30877;43.706;10.780;2023-04-30T10:17:43;2.88;;;2.08;;
45114;SDS011;30877;43.706;10.780;2023-04-30T10:20:16;2.60;;;2.15;;
45114;SDS011;30877;43.706;10.780;2023-04-30T10:22:45;4.65;;;1.92;;
45114;SDS011;30877;43.706;10.780;2023-04-30T10:25:13;3.47;;;2.30;;
45114;SDS011;30877;43.706;10.780;2023-04-30T10:27:42;5.03;;;2.33;;
45114;SDS011;30877;43.706;10.780;2023-04-30T10:30:10;2.55;;;2.20;;
45114;SDS011;30877;43.706;10.780;2023-04-30T10:32:40;2.83;;;2.00;;
45114;SDS011;30877;43.706;10.780;2023-04-30T10:35:25;3.42;;;1.80;;
45114;SDS011;30877;43.706;10.780;2023-04-30T10:37:56;2.53;;;1.98;;
45114;SDS011;30877;43.706;10.780;2023-04-30T10:40:34;1.98;;;1.77;;
45114;SDS011;30877;43.706;10.780;2023-04-30T10:43:03;4.15;;;1.80;;
45114;SDS011;30877;43.706;10.780;2023-04-30T10:45:35;3.40;;;1.95;;
45114;SDS011;30877;43.706;10.780;2023-04-30T10:48:05;2.53;;;1.77;;
45114;SDS011;30877;43.706;10.780;2023-04-30T10:50:38;2.40;;;1.90;;
45114;SDS011;30877;43.706;10.780;2023-04-30T10:53:11;3.90;;;2.10;;
45114;SDS011;30877;43.706;10.780;2023-04-30T10:55:44;3.63;;;2.03;;
45114;SDS011;30877;43.706;10.780;2023-04-30T10:58:24;2.58;;;1.77;;
45114;SDS011;30877;43.706;10.780;2023-04-30T11:00:59;3.55;;;1.60;;
45114;SDS011;30877;43.706;10.780;2023-04-30T11:03:30;3.08;;;1.88;;
45114;SDS011;30877;43.706;10.780;2023-04-30T11:06:00;2.92;;;1.70;;
45114;SDS011;30877;43.706;10.780;2023-04-30T11:08:35;3.75;;;1.88;;
45114;SDS011;30877;43.706;10.780;2023-04-30T11:11:03;1.92;;;1.35;;
45114;SDS011;30877;43.706;10.780;2023-04-30T11:13:38;3.38;;;1.55;;
45114;SDS011;30877;43.706;10.780;2023-04-30T11:16:09;3.13;;;1.85;;
45114;SDS011;30877;43.706;10.780;2023-04-30T11:18:42;3.03;;;1.80;;
45114;SDS011;30877;43.706;10.780;2023-04-30T11:21:11;2.92;;;1.88;;
45114;SDS011;30877;43.706;10.780;2023-04-30T11:23:40;1.92;;;1.23;;
45114;SDS011;30877;43.706;10.780;2023-04-30T11:26:09;3.97;;;1.73;;
45114;SDS011;30877;43.706;10.780;2023-04-30T11:28:37;3.45;;;1.30;;
45114;SDS011;30877;43.706;10.780;2023-04-30T11:31:05;2.50;;;1.55;;
45114;SDS011;30877;43.706;10.780;2023-04-30T11:33:33;5.57;;;1.63;;
45114;SDS011;30877;43.706;10.780;2023-04-30T11:36:03;2.53;;;1.60;;
45114;SDS011;30877;43.706;10.780;2023-04-30T11:38:33;5.85;;;1.50;;
45114;SDS011;30877;43.706;10.780;2023-04-30T11:41:02;3.33;;;1.42;;
45114;SDS011;30877;43.706;10.780;2023-04-30T11:43:31;3.45;;;1.30;;
45114;SDS011;30877;43.706;10.780;2023-04-30T11:46:00;3.42;;;1.50;;
45114;SDS011;30877;43.706;10.780;2023-04-30T11:48:39;2.22;;;1.63;;
45114;SDS011;30877;43.706;10.780;2023-04-30T11:51:16;3.75;;;2.30;;
45114;SDS011;30877;43.706;10.780;2023-04-30T11:53:45;3.60;;;1.55;;
45114;SDS011;30877;43.706;10.780;2023-04-30T11:56:16;2.97;;;1.50;;
45114;SDS011;30877;43.706;10.780;2023-04-30T11:58:46;2.65;;;1.60;;
45114;SDS011;30877;43.706;10.780;2023-04-30T12:01:15;2.15;;;1.42;;
45114;SDS011;30877;43.706;10.780;2023-04-30T12:03:44;2.05;;;1.85;;
45114;SDS011;30877;43.706;10.780;2023-04-30T12:06:22;1.80;;;1.27;;
45114;SDS011;30877;43.706;10.780;2023-04-30T12:08:51;1.83;;;1.60;;
45114;SDS011;30877;43.706;10.780;2023-04-30T12:11:21;2.00;;;1.35;;
45114;SDS011;30877;43.706;10.780;2023-04-30T12:13:52;3.28;;;1.15;;
45114;SDS011;30877;43.706;10.780;2023-04-30T12:16:22;2.78;;;1.27;;
45114;SDS011;30877;43.706;10.780;2023-04-30T12:18:51;3.72;;;1.30;;
45114;SDS011;30877;43.706;10.780;2023-04-30T12:21:20;2.88;;;1.30;;
45114;SDS011;30877;43.706;10.780;2023-04-30T12:23:49;2.45;;;1.42;;
45114;SDS011;30877;43.706;10.780;2023-04-30T12:26:17;2.88;;;1.33;;
45114;SDS011;30877;43.706;10.780;2023-04-30T12:28:46;1.80;;;1.40;;
45114;SDS011;30877;43.706;10.780;2023-04-30T12:31:16;2.63;;;1.33;;
45114;SDS011;30877;43.706;10.780;2023-04-30T12:33:52;2.72;;;1.42;;
45114;SDS011;30877;43.706;10.780;2023-04-30T12:39:19;3.00;;;1.40;;
45114;SDS011;30877;43.706;10.780;2023-04-30T12:41:54;4.75;;;1.20;;
45114;SDS011;30877;43.706;10.780;2023-04-30T12:44:27;2.75;;;1.40;;
45114;SDS011;30877;43.706;10.780;2023-04-30T12:46:55;4.97;;;1.60;;
45114;SDS011;30877;43.706;10.780;2023-04-30T12:49:24;1.92;;;1.13;;
45114;SDS011;30877;43.706;10.780;2023-04-30T12:51:59;1.83;;;1.10;;
45114;SDS011;30877;43.706;10.780;2023-04-30T12:54:29;3.15;;;1.70;;
45114;SDS011;30877;43.706;10.780;2023-04-30T12:57:01;3.95;;;1.30;;
45114;SDS011;30877;43.706;10.780;2023-04-30T12:59:30;2.15;;;1.10;;
45114;SDS011;30877;43.706;10.780;2023-04-30T13:02:07;3.45;;;1.17;;
45114;SDS011;30877;43.706;10.780;2023-04-30T13:05:11;2.28;;;1.15;;
45114;SDS011;30877;43.706;10.780;2023-04-30T13:07:43;2.88;;;1.55;;
45114;SDS011;30877;43.706;10.780;2023-04-30T13:10:11;1.73;;;1.27;;
45114;SDS011;30877;43.706;10.780;2023-04-30T13:12:40;2.00;;;1.30;;
45114;SDS011;30877;43.706;10.780;2023-04-30T13:15:08;2.15;;;1.40;;
45114;SDS011;30877;43.706;10.780;2023-04-30T13:17:36;3.38;;;1.27;;
45114;SDS011;30877;43.706;10.780;2023-04-30T13:20:06;3.63;;;1.92;;
45114;SDS011;30877;43.706;10.780;2023-04-30T13:22:35;3.25;;;1.58;;
45114;SDS011;30877;43.706;10.780;2023-04-30T13:25:05;2.78;;;1.60;;
45114;SDS011;30877;43.706;10.780;2023-04-30T13:27:34;2.80;;;1.52;;
45114;SDS011;30877;43.706;10.780;2023-04-30T13:30:02;3.90;;;1.35;;
45114;SDS011;30877;43.706;10.780;2023-04-30T13:32:31;3.03;;;1.27;;
45114;SDS011;30877;43.706;10.780;2023-04-30T13:34:59;2.65;;;1.48;;
45114;SDS011;30877;43.706;10.780;2023-04-30T13:37:28;2.75;;;1.50;;
45114;SDS011;30877;43.706;10.780;2023-04-30T13:39:59;1.55;;;1.00;;
45114;SDS011;30877;43.706;10.780;2023-04-30T13:42:28;2.67;;;1.25;;
45114;SDS011;30877;43.706;10.780;2023-04-30T13:44:57;2.72;;;1.23;;
45114;SDS011;30877;43.706;10.780;2023-04-30T13:47:25;3.08;;;1.20;;
45114;SDS011;30877;43.706;10.780;2023-04-30T13:49:53;4.82;;;1.88;;
45114;SDS011;30877;43.706;10.780;2023-04-30T13:52:21;2.70;;;1.23;;
45114;SDS011;30877;43.706;10.780;2023-04-30T13:54:49;2.10;;;1.58;;
45114;SDS011;30877;43.706;10.780;2023-04-30T13:57:17;2.78;;;1.30;;
45114;SDS011;30877;43.706;10.780;2023-04-30T13:59:48;2.55;;;1.30;;
45114;SDS011;30877;43.706;10.780;2023-04-30T14:02:16;3.33;;;1.13;;
45114;SDS011;30877;43.706;10.780;2023-04-30T14:04:44;3.65;;;1.20;;
45114;SDS011;30877;43.706;10.780;2023-04-30T14:07:31;2.00;;;1.02;;
45114;SDS011;30877;43.706;10.780;2023-04-30T14:09:59;3.28;;;1.52;;
45114;SDS011;30877;43.706;10.780;2023-04-30T14:12:26;2.28;;;1.08;;
45114;SDS011;30877;43.706;10.780;2023-04-30T14:14:57;2.78;;;1.33;;
45114;SDS011;30877;43.706;10.780;2023-04-30T14:17:26;2.90;;;1.10;;
45114;SDS011;30877;43.706;10.780;2023-04-30T14:19:55;1.27;;;1.15;;
45114;SDS011;30877;43.706;10.780;2023-04-30T14:22:23;2.80;;;1.23;;
45114;SDS011;30877;43.706;10.780;2023-04-30T14:24:51;2.38;;;1.10;;
45114;SDS011;30877;43.706;10.780;2023-04-30T14:27:19;2.50;;;1.13;;
45114;SDS011;30877;43.706;10.780;2023-04-30T14:29:47;1.30;;;1.00;;
45114;SDS011;30877;43.706;10.780;2023-04-30T14:32:16;2.08;;;1.25;;
45114;SDS011;30877;43.706;10.780;2023-04-30T14:34:44;1.55;;;1.13;;
45114;SDS011;30877;43.706;10.780;2023-04-30T14:37:13;3.83;;;1.10;;
45114;SDS011;30877;43.706;10.780;2023-04-30T14:39:42;3.13;;;1.30;;
45114;SDS011;30877;43.706;10.780;2023-04-30T14:42:10;3.58;;;1.35;;
45114;SDS011;30877;43.706;10.780;2023-04-30T14:44:38;2.13;;;1.30;;
45114;SDS011;30877;43.706;10.780;2023-04-30T14:47:06;1.25;;;0.85;;
45114;SDS011;30877;43.706;10.780;2023-04-30T14:49:36;2.38;;;1.10;;
45114;SDS011;30877;43.706;10.780;2023-04-30T14:52:04;1.77;;;1.15;;
45114;SDS011;30877;43.706;10.780;2023-04-30T14:54:32;2.47;;;1.20;;
45114;SDS011;30877;43.706;10.780;2023-04-30T14:56:59;2.22;;;1.40;;